Time;durP1;ratioP1;P1;durP2;ratioP2;P2;SDS_P1;SDS_P2;PMS_P1;PMS_P2;Temp;Humidity;BMP_temperature;BMP_pressure;BME280_temperature;BME280_humidity;BME280_pressure;Samples;Min_cycle;Max_cycle;Signal;HPM_P1;HPM_P2
2022/08/01 00:04:38;;;;;;;7.22;6.53;;;;;;;18.02;88.13;100279.06;10179337;29;20786;-79
2022/08/01 00:09:41;;;;;;;7.20;6.10;;;;;;;17.95;87.83;100283.47;10177977;29;20090;-79
2022/08/01 00:14:44;;;;;;;10.43;6.90;;;;;;;18.14;86.87;100283.09;10194306;29;20055;-79
2022/08/01 00:19:48;;;;;;;14.18;6.65;;;;;;;18.13;85.97;100289.56;10177958;29;20154;-79
2022/08/01 00:24:51;;;;;;;8.52;6.75;;;;;;;18.23;85.10;100281.19;10178127;29;20132;-79
2022/08/01 00:29:54;;;;;;;8.20;6.20;;;;;;;18.26;85.21;100277.25;10180775;29;20126;-79
2022/08/01 00:35:17;;;;;;;8.73;6.20;;;;;;;18.26;85.26;100280.81;10177977;29;20234;-79
2022/08/01 00:40:20;;;;;;;6.25;5.30;;;;;;;17.92;85.84;100284.66;10183610;29;20788;-79
2022/08/01 00:45:23;;;;;;;6.80;6.10;;;;;;;18.02;84.69;100280.91;10186152;29;20497;-79
2022/08/01 00:50:28;;;;;;;7.85;6.00;;;;;;;17.89;84.85;100289.59;10185600;29;20066;-79
2022/08/01 00:55:32;;;;;;;10.07;5.88;;;;;;;17.85;84.78;100291.84;10185835;29;20087;-79
2022/08/01 01:00:36;;;;;;;8.77;6.15;;;;;;;17.61;85.56;100289.19;10185928;29;20059;-79
2022/08/01 01:06:06;;;;;;;8.10;6.47;;;;;;;17.99;84.22;100290.28;10184189;29;20056;-79
2022/08/01 01:11:14;;;;;;;12.23;7.25;;;;;;;17.98;84.54;100290.47;10184989;29;20102;-79
2022/08/01 01:16:19;;;;;;;7.88;6.50;;;;;;;17.48;86.37;100297.84;10201137;29;20062;-80
2022/08/01 01:21:35;;;;;;;10.73;6.63;;;;;;;17.83;85.20;100293.88;10185085;29;20063;-79
2022/08/01 01:26:47;;;;;;;9.20;6.50;;;;;;;17.34;86.98;100298.53;10186153;29;20714;-79
2022/08/01 01:31:56;;;;;;;8.93;6.65;;;;;;;18.00;84.06;100302.84;10184441;29;20111;-79
2022/08/01 01:37:02;;;;;;;8.98;5.28;;;;;;;17.65;86.09;100304.94;10179509;29;22039;-79
2022/08/01 01:42:07;;;;;;;7.05;4.65;;;;;;;17.93;84.61;100310.81;10184321;29;20132;-79
2022/08/01 01:47:13;;;;;;;5.85;3.63;;;;;;;17.40;86.56;100306.00;10178204;29;20047;-78
2022/08/01 01:52:18;;;;;;;4.05;2.75;;;;;;;17.62;85.49;100308.00;10199495;29;20052;-78
2022/08/01 01:57:22;;;;;;;6.28;3.70;;;;;;;17.72;85.60;100313.25;10217180;29;20052;-78
2022/08/01 02:02:28;;;;;;;9.85;4.60;;;;;;;17.51;87.41;100308.34;10177694;29;20146;-78
2022/08/01 02:07:33;;;;;;;6.55;4.22;;;;;;;17.36;88.00;100324.50;10178570;29;20059;-78
2022/08/01 02:12:38;;;;;;;8.43;5.00;;;;;;;17.30;87.52;100318.88;10176796;29;20102;-78
2022/08/01 02:17:45;;;;;;;8.32;5.07;;;;;;;17.58;86.43;100316.66;10174753;29;20118;-78
2022/08/01 02:22:52;;;;;;;6.75;4.70;;;;;;;17.74;85.26;100324.78;10179786;29;20079;-78
2022/08/01 02:28:01;;;;;;;4.68;3.83;;;;;;;17.76;84.83;100321.91;10178912;29;20122;-78
2022/08/01 02:33:09;;;;;;;5.25;4.05;;;;;;;17.09;87.39;100320.22;10177856;29;20074;-78
2022/08/01 02:38:19;;;;;;;6.68;4.13;;;;;;;17.28;87.75;100319.06;10177913;29;20048;-78
2022/08/01 02:43:24;;;;;;;6.25;4.47;;;;;;;17.24;88.18;100323.13;10178513;29;20442;-79
2022/08/01 02:48:31;;;;;;;4.95;4.45;;;;;;;17.35;87.94;100325.50;10178243;29;20482;-78
2022/08/01 02:53:40;;;;;;;8.02;3.50;;;;;;;17.61;86.53;100327.19;10184114;29;21604;-78
2022/08/01 02:58:48;;;;;;;6.32;4.13;;;;;;;17.37;87.34;100331.63;10180446;29;20055;-78
2022/08/01 03:03:53;;;;;;;5.50;4.03;;;;;;;17.51;87.37;100338.22;10176350;29;20517;-78
2022/08/01 03:08:57;;;;;;;8.75;3.88;;;;;;;17.72;86.65;100335.00;10177975;29;20142;-78
2022/08/01 03:14:03;;;;;;;4.38;3.88;;;;;;;17.63;86.95;100341.44;10177568;29;20139;-78
2022/08/01 03:19:09;;;;;;;6.72;4.20;;;;;;;17.53;87.08;100343.50;10177732;29;21311;-78
2022/08/01 03:24:13;;;;;;;6.75;4.60;;;;;;;17.37;87.36;100342.47;10177760;29;20127;-78
2022/08/01 03:29:19;;;;;;;7.13;4.85;;;;;;;17.27;87.64;100344.50;10171492;29;20171;-78
2022/08/01 03:34:24;;;;;;;8.75;5.90;;;;;;;17.38;86.77;100344.16;10177468;29;20047;-77
2022/08/01 03:39:34;;;;;;;9.40;5.28;;;;;;;17.67;86.16;100345.53;10178450;29;20690;-78
2022/08/01 03:44:41;;;;;;;11.48;6.40;;;;;;;17.56;86.73;100356.72;10179685;29;20051;-78
2022/08/01 03:49:47;;;;;;;11.20;6.18;;;;;;;17.29;88.07;100352.50;10179459;29;20047;-78
2022/08/01 03:54:53;;;;;;;10.30;6.88;;;;;;;17.61;86.45;100354.38;10178624;29;20474;-78
2022/08/01 03:59:57;;;;;;;11.80;6.30;;;;;;;17.47;86.96;100361.31;10176463;29;20083;-78
2022/08/01 04:05:02;;;;;;;10.18;7.57;;;;;;;17.33;87.95;100359.25;10176464;29;20083;-77
2022/08/01 04:10:06;;;;;;;11.25;7.22;;;;;;;17.23;87.04;100373.88;10177686;29;20126;-78
2022/08/01 04:15:09;;;;;;;9.50;6.68;;;;;;;17.03;87.51;100365.16;10182201;29;20084;-78
2022/08/01 04:20:15;;;;;;;10.82;6.63;;;;;;;17.64;85.41;100368.44;10185107;29;20528;-78
2022/08/01 04:25:22;;;;;;;8.57;6.30;;;;;;;17.39;85.69;100361.31;10184261;29;20048;-78
2022/08/01 04:30:30;;;;;;;8.85;5.53;;;;;;;17.47;85.54;100370.31;10176601;29;20505;-78
2022/08/01 04:35:37;;;;;;;9.88;5.60;;;;;;;17.74;84.46;100376.38;10186156;29;20056;-77
2022/08/01 04:41:02;;;;;;;6.57;5.13;;;;;;;17.61;84.30;100385.06;10187351;29;20048;-79
2022/08/01 04:46:12;;;;;;;5.78;5.20;;;;;;;17.14;86.04;100406.56;10210938;29;21084;-77
2022/08/01 04:51:21;;;;;;;8.27;5.97;;;;;;;17.76;84.21;100401.53;10190795;29;20059;-78
2022/08/01 04:56:25;;;;;;;6.88;5.40;;;;;;;17.34;86.25;100397.13;10172678;29;20044;-77
2022/08/01 05:01:27;;;;;;;9.65;5.90;;;;;;;18.06;83.74;100415.44;10180280;29;20143;-78
2022/08/01 05:06:32;;;;;;;8.52;5.95;;;;;;;17.78;83.99;100404.94;10183244;29;20750;-78
2022/08/01 05:11:34;;;;;;;8.00;6.00;;;;;;;17.82;83.88;100414.41;10181567;29;20075;-78
2022/08/01 05:16:37;;;;;;;12.05;7.30;;;;;;;18.27;82.85;100410.31;10182685;29;20060;-78
2022/08/01 05:21:41;;;;;;;10.15;5.97;;;;;;;18.05;83.47;100411.06;10199061;29;20051;-78
2022/08/01 05:26:44;;;;;;;7.85;5.80;;;;;;;18.55;83.03;100409.88;10196539;28;20469;-79
2022/08/01 05:31:49;;;;;;;9.80;6.80;;;;;;;18.54;81.81;100411.75;10184829;29;20051;-78
2022/08/01 05:36:54;;;;;;;10.10;6.97;;;;;;;18.48;81.46;100422.47;10183252;29;20131;-78
2022/08/01 05:41:59;;;;;;;8.27;6.13;;;;;;;18.61;81.44;100424.66;10183666;29;20048;-78
2022/08/01 05:47:02;;;;;;;10.95;6.28;;;;;;;18.66;81.34;100424.97;10190695;29;20115;-77
2022/08/01 05:52:07;;;;;;;8.50;7.60;;;;;;;18.86;81.72;100422.69;10215381;29;20055;-79
2022/08/01 05:57:10;;;;;;;9.35;6.65;;;;;;;19.21;81.95;100430.31;10198173;29;20059;-78
2022/08/01 06:02:14;;;;;;;7.15;6.20;;;;;;;19.16;79.68;100438.19;10196579;29;20450;-79
2022/08/01 06:07:18;;;;;;;10.60;6.10;;;;;;;18.92;79.58;100436.44;10196501;29;20049;-79
2022/08/01 06:12:21;;;;;;;6.40;5.68;;;;;;;19.50;78.00;100433.34;10197429;29;20059;-78
2022/08/01 06:17:25;;;;;;;10.32;5.13;;;;;;;19.37;78.34;100444.88;10193821;29;20058;-79
2022/08/01 06:22:29;;;;;;;7.90;5.32;;;;;;;19.63;74.57;100447.25;10211423;28;20043;-78
2022/08/01 06:27:35;;;;;;;6.60;5.32;;;;;;;19.35;75.47;100450.47;10220172;29;20066;-79
2022/08/01 06:32:38;;;;;;;7.60;5.35;;;;;;;19.53;77.73;100457.50;10201078;29;20152;-79
2022/08/01 06:37:42;;;;;;;5.68;4.72;;;;;;;19.62;79.12;100456.47;10199192;29;20047;-79
2022/08/01 06:42:46;;;;;;;5.00;4.50;;;;;;;19.72;79.84;100456.19;10195142;29;20058;-80
2022/08/01 06:47:49;;;;;;;6.18;4.03;;;;;;;19.64;76.96;100462.59;10178007;29;20067;-79
2022/08/01 06:52:54;;;;;;;2.88;2.58;;;;;;;19.43;77.64;100468.66;10188907;28;20048;-79
2022/08/01 06:57:56;;;;;;;3.72;2.33;;;;;;;19.45;76.86;100469.34;10184067;29;20052;-79
2022/08/01 07:03:00;;;;;;;3.33;2.90;;;;;;;19.83;77.69;100469.44;10181406;28;20051;-79
2022/08/01 07:08:04;;;;;;;3.40;2.30;;;;;;;19.80;75.24;100469.75;10183991;29;20051;-78
2022/08/01 07:13:07;;;;;;;2.47;1.95;;;;;;;19.84;74.40;100479.28;10186182;29;20056;-79
2022/08/01 07:18:10;;;;;;;2.28;2.08;;;;;;;20.10;74.29;100467.97;10190779;29;20055;-78
2022/08/01 07:23:14;;;;;;;2.72;2.35;;;;;;;20.43;73.12;100470.41;10186531;29;20051;-79
2022/08/01 07:28:17;;;;;;;2.90;1.52;;;;;;;20.37;71.83;100472.00;10184264;29;20051;-79
2022/08/01 07:33:20;;;;;;;2.60;2.40;;;;;;;20.46;73.71;100475.47;10181847;29;20052;-77
2022/08/01 07:38:24;;;;;;;2.20;1.88;;;;;;;20.42;74.26;100480.47;10185958;29;20051;-79
2022/08/01 07:43:27;;;;;;;2.67;1.60;;;;;;;20.09;75.79;100477.19;10188165;29;20060;-79
2022/08/01 07:48:31;;;;;;;3.83;1.63;;;;;;;19.78;73.33;100480.88;10202500;29;20056;-79
2022/08/01 07:53:35;;;;;;;2.58;1.80;;;;;;;20.17;73.04;100490.75;10191405;29;20056;-79
2022/08/01 07:58:38;;;;;;;3.45;1.88;;;;;;;20.79;73.60;100495.94;10185060;29;20054;-79
2022/08/01 08:03:41;;;;;;;3.20;2.03;;;;;;;21.57;75.82;100496.28;10187515;29;20051;-78
2022/08/01 08:08:45;;;;;;;4.90;1.88;;;;;;;21.77;72.48;100504.69;10190737;29;20118;-79
2022/08/01 08:13:48;;;;;;;7.65;1.38;;;;;;;22.08;71.12;100504.38;10193154;29;20067;-78
2022/08/01 08:18:51;;;;;;;1.60;1.27;;;;;;;22.14;68.13;100504.63;10190652;29;20055;-79
2022/08/01 08:29:16;;;;;;;1.97;1.70;;;;;;;21.96;63.18;100513.28;10186823;28;20064;-78
2022/08/01 08:34:19;;;;;;;2.72;1.50;;;;;;;22.18;65.50;100517.69;10184470;28;20497;-80
2022/08/01 08:39:24;;;;;;;3.13;1.40;;;;;;;22.30;65.72;100520.75;10190999;28;20055;-78
2022/08/01 08:44:27;;;;;;;2.90;1.40;;;;;;;22.06;65.88;100522.88;10183620;29;20071;-78
2022/08/01 08:49:30;;;;;;;1.60;1.38;;;;;;;22.12;69.87;100526.69;10202869;29;20035;-77
2022/08/01 08:54:41;;;;;;;1.55;1.20;;;;;;;21.83;67.98;100534.03;10182762;29;20059;-79
2022/08/01 08:59:45;;;;;;;3.10;1.02;;;;;;;21.27;68.77;100547.41;10184340;29;20047;-79
2022/08/01 09:04:49;;;;;;;2.13;1.17;;;;;;;21.40;67.75;100550.31;10174570;29;20176;-79
2022/08/01 09:09:53;;;;;;;1.95;1.13;;;;;;;21.94;64.96;100551.78;10183546;29;20885;-79
2022/08/01 09:21:16;;;;;;;1.02;0.70;;;;;;;22.38;66.05;100561.66;10122848;29;20108;-77
2022/08/01 09:26:22;;;;;;;1.38;0.90;;;;;;;21.95;59.58;100558.94;10143452;29;20048;-77
2022/08/01 09:31:28;;;;;;;2.90;0.90;;;;;;;21.73;61.89;100568.16;10153981;29;20757;-78
2022/08/01 09:36:51;;;;;;;1.25;0.90;;;;;;;22.22;63.07;100571.00;10146637;29;20048;-78
2022/08/01 09:42:00;;;;;;;1.02;0.90;;;;;;;22.81;61.65;100571.69;10147167;29;20069;-79
2022/08/01 09:47:03;;;;;;;3.10;1.20;;;;;;;23.13;58.10;100571.06;10142559;29;20052;-79
2022/08/01 09:52:15;;;;;;;1.10;1.00;;;;;;;24.76;61.04;100563.59;10145869;29;20127;-78
2022/08/01 09:57:20;;;;;;;2.35;0.77;;;;;;;26.09;53.77;100562.25;10145199;29;20040;-78
2022/08/01 10:02:32;;;;;;;0.90;0.60;;;;;;;25.08;59.52;100572.03;10146184;29;20059;-78
2022/08/01 10:07:36;;;;;;;1.55;0.77;;;;;;;25.29;52.86;100559.94;10141546;29;20076;-78
2022/08/01 10:12:48;;;;;;;2.75;0.80;;;;;;;25.75;50.54;100571.78;10140516;29;20053;-79
2022/08/01 10:17:54;;;;;;;0.70;0.70;;;;;;;25.02;53.89;100564.63;10162392;29;20108;-77
2022/08/01 10:23:00;;;;;;;0.60;0.60;;;;;;;25.73;51.82;100574.78;10128812;29;20602;-78
2022/08/01 10:28:15;;;;;;;1.10;0.80;;;;;;;26.25;50.61;100575.50;10140495;29;20062;-78
2022/08/01 10:33:24;;;;;;;3.03;0.80;;;;;;;25.26;49.08;100587.84;10154419;29;20056;-78
2022/08/01 10:38:47;;;;;;;2.05;0.60;;;;;;;24.63;50.67;100582.00;10144799;29;20119;-78
2022/08/01 10:43:52;;;;;;;1.60;0.82;;;;;;;24.79;50.58;100577.97;10143826;29;20076;-77
2022/08/01 10:49:01;;;;;;;1.30;1.10;;;;;;;25.60;48.80;100577.56;10143098;29;20556;-78
2022/08/01 10:54:07;;;;;;;0.90;0.90;;;;;;;26.05;48.37;100574.78;10142933;29;20045;-78
2022/08/01 10:59:20;;;;;;;1.90;1.33;;;;;;;25.43;49.07;100579.13;10143817;29;20084;-78
2022/08/01 11:04:51;;;;;;;2.53;1.40;;;;;;;25.28;49.42;100584.88;10140304;29;20490;-78
2022/08/01 11:10:04;;;;;;;1.45;1.35;;;;;;;25.79;47.99;100571.13;10139694;29;20044;-79
2022/08/01 11:15:26;;;;;;;2.35;1.40;;;;;;;26.28;46.22;100577.81;10139992;29;20088;-79
2022/08/01 11:20:33;;;;;;;2.92;1.60;;;;;;;26.35;46.74;100583.25;10139818;29;20048;-78
2022/08/01 11:26:09;;;;;;;2.27;1.53;;;;;;;26.44;46.73;100581.94;10141231;29;20045;-78
2022/08/01 11:31:34;;;;;;;2.45;2.28;;;;;;;26.69;46.77;100576.41;10137147;29;20092;-78
2022/08/01 11:36:39;;;;;;;3.60;2.10;;;;;;;25.84;47.45;100585.06;10103063;29;20045;-79
2022/08/01 11:42:19;;;;;;;3.37;3.03;;;;;;;25.11;48.96;100584.50;10133762;29;20060;-78
2022/08/01 11:47:49;;;;;;;4.88;3.25;;;;;;;25.40;48.90;100585.91;10135405;29;20077;-79
2022/08/01 11:52:58;;;;;;;3.60;2.97;;;;;;;25.10;49.19;100588.31;10141854;29;20089;-78
2022/08/01 11:58:02;;;;;;;6.50;3.38;;;;;;;25.26;47.90;100587.00;10141876;29;20427;-78
2022/08/01 12:03:08;;;;;;;4.13;2.97;;;;;;;26.10;46.92;100590.63;10143051;29;20055;-79
2022/08/01 12:08:11;;;;;;;10.20;3.15;;;;;;;26.01;46.68;100590.88;10141085;29;20482;-78
2022/08/01 12:13:14;;;;;;;4.45;3.33;;;;;;;26.15;46.86;100590.81;10137311;29;20063;-77
2022/08/01 12:18:18;;;;;;;5.63;4.05;;;;;;;25.94;46.50;100594.75;10137404;29;20077;-79
2022/08/01 12:23:21;;;;;;;4.50;4.10;;;;;;;26.21;46.16;100599.00;10141922;29;20052;-78
2022/08/01 12:28:24;;;;;;;4.22;3.75;;;;;;;25.08;48.52;100605.00;10163975;29;20531;-78
2022/08/01 12:33:28;;;;;;;4.18;3.78;;;;;;;24.64;48.59;100614.75;10141434;29;20135;-78
2022/08/01 12:38:32;;;;;;;7.15;3.75;;;;;;;23.76;49.78;100622.16;10147906;29;20055;-78
2022/08/01 12:43:35;;;;;;;4.60;4.15;;;;;;;22.15;54.07;100621.22;10148631;29;20044;-78
2022/08/01 12:48:40;;;;;;;4.45;3.97;;;;;;;22.89;53.59;100626.31;10147538;29;20052;-78
2022/08/01 12:53:42;;;;;;;7.05;4.03;;;;;;;22.81;52.67;100627.28;10168090;29;20101;-78
2022/08/01 12:58:45;;;;;;;4.07;3.67;;;;;;;22.93;52.63;100635.81;10146830;29;20055;-77
2022/08/01 13:04:00;;;;;;;3.90;3.60;;;;;;;23.03;51.18;100632.72;10153293;29;20051;-78
2022/08/01 13:15:24;;;;;;;5.85;3.47;;;;;;;23.08;52.55;100622.84;10129217;29;20064;-78
2022/08/01 13:20:30;;;;;;;7.60;3.60;;;;;;;23.49;50.21;100633.03;10144705;29;20418;-78
2022/08/01 13:25:33;;;;;;;3.50;3.13;;;;;;;23.51;50.41;100627.34;10143531;29;20040;-78
2022/08/01 13:30:36;;;;;;;7.40;3.30;;;;;;;24.71;48.95;100625.72;10135126;29;20116;-78
2022/08/01 13:35:41;;;;;;;9.32;4.55;;;;;;;25.49;47.57;100619.50;10140686;29;20052;-78
2022/08/01 13:40:44;;;;;;;2.80;2.60;;;;;;;25.56;45.58;100618.41;10139851;29;20072;-78
2022/08/01 13:45:47;;;;;;;2.10;2.00;;;;;;;25.25;45.62;100623.78;10142622;29;20044;-78
2022/08/01 13:50:51;;;;;;;2.78;1.85;;;;;;;24.59;44.78;100621.94;10143778;29;20514;-78
2022/08/01 13:56:15;;;;;;;3.05;2.22;;;;;;;24.87;45.63;100622.56;10132393;29;20355;-78
2022/08/01 14:01:18;;;;;;;5.55;2.00;;;;;;;25.31;45.23;100623.75;10133323;29;20048;-77
2022/08/01 14:06:23;;;;;;;2.17;2.08;;;;;;;24.52;44.75;100628.28;10130227;29;20042;-78
2022/08/01 14:11:26;;;;;;;2.80;1.92;;;;;;;24.60;45.74;100629.13;10128743;29;20048;-78
2022/08/01 14:16:32;;;;;;;4.82;2.08;;;;;;;24.69;44.08;100630.63;10132711;29;20068;-78
2022/08/01 14:21:37;;;;;;;3.13;2.53;;;;;;;24.08;45.93;100639.81;10130245;29;20036;-78
2022/08/01 14:26:39;;;;;;;3.65;2.30;;;;;;;24.76;45.86;100629.53;10140525;29;20469;-78
2022/08/01 14:31:42;;;;;;;3.70;2.47;;;;;;;25.27;44.81;100622.53;10136657;29;20048;-78
2022/08/01 14:36:46;;;;;;;5.30;2.90;;;;;;;25.26;44.47;100615.34;10139936;29;20029;-75
2022/08/01 14:41:51;;;;;;;4.90;3.28;;;;;;;25.15;45.36;100619.59;10148476;29;20064;-77
2022/08/01 14:46:53;;;;;;;3.63;2.60;;;;;;;24.54;45.52;100623.41;10127334;29;20065;-78
2022/08/01 14:52:01;;;;;;;6.45;3.42;;;;;;;25.03;45.60;100620.47;10132763;29;20072;-78
2022/08/01 14:57:04;;;;;;;5.03;3.08;;;;;;;25.15;45.80;100618.72;10140521;29;20041;-78
2022/08/01 15:02:10;;;;;;;6.47;3.17;;;;;;;25.27;44.46;100614.28;10141434;29;20075;-78
2022/08/01 15:07:16;;;;;;;4.38;2.72;;;;;;;25.05;44.44;100610.94;10164906;29;20048;-75
2022/08/01 15:12:19;;;;;;;3.80;2.80;;;;;;;24.43;45.51;100613.06;10175353;29;20073;-76
2022/08/01 15:17:23;;;;;;;7.32;2.88;;;;;;;25.06;45.56;100600.78;10143805;29;20048;-78
2022/08/01 15:22:29;;;;;;;4.35;2.58;;;;;;;24.70;45.20;100607.59;10142483;29;20043;-77
2022/08/01 15:27:32;;;;;;;5.80;3.03;;;;;;;24.62;46.52;100616.03;10132887;29;20507;-78
2022/08/01 15:32:35;;;;;;;4.68;2.65;;;;;;;24.54;46.83;100626.16;10190194;23;20051;-77
2022/08/01 15:37:39;;;;;;;6.93;3.60;;;;;;;24.48;47.30;100621.50;10181616;29;20135;-78
2022/08/01 15:42:45;;;;;;;8.98;3.38;;;;;;;25.27;45.59;100619.78;10167271;29;20469;-78
2022/08/01 15:47:48;;;;;;;4.85;2.55;;;;;;;25.74;44.87;100620.47;10185685;29;20074;-78
2022/08/01 15:52:53;;;;;;;5.97;3.00;;;;;;;25.69;44.80;100622.19;10175899;29;20052;-78
2022/08/01 15:57:55;;;;;;;11.65;2.97;;;;;;;25.52;45.18;100616.31;10162763;29;20434;-78
2022/08/01 16:02:58;;;;;;;8.43;3.05;;;;;;;25.48;45.25;100618.66;10165277;29;20104;-78
2022/08/01 16:08:03;;;;;;;4.22;2.45;;;;;;;25.30;44.92;100607.50;10177471;29;20062;-77
2022/08/01 16:13:06;;;;;;;5.28;2.28;;;;;;;25.35;44.73;100619.53;10185302;29;20052;-78
2022/08/01 16:18:12;;;;;;;8.88;2.65;;;;;;;25.24;44.84;100614.72;10187112;29;20087;-78
2022/08/01 16:23:16;;;;;;;6.03;2.55;;;;;;;25.26;45.26;100611.72;10194292;29;20040;-77
2022/08/01 16:28:20;;;;;;;4.68;2.10;;;;;;;25.55;43.62;100619.44;10203647;29;20080;-77
2022/08/01 16:33:23;;;;;;;9.93;2.47;;;;;;;27.02;42.21;100619.34;10186047;29;20556;-78
2022/08/01 16:38:47;;;;;;;4.57;1.80;;;;;;;28.65;38.18;100614.03;10183707;29;20044;-78
2022/08/01 16:43:50;;;;;;;5.38;2.08;;;;;;;28.11;39.02;100610.41;10185482;29;20466;-79
2022/08/01 16:48:56;;;;;;;10.35;2.50;;;;;;;27.10;40.72;100615.47;10188478;29;20040;-78
2022/08/01 16:54:00;;;;;;;6.78;2.40;;;;;;;28.04;39.37;100611.34;10189282;29;20520;-79
2022/08/01 16:59:03;;;;;;;9.57;2.65;;;;;;;26.91;40.70;100617.34;10183408;29;20568;-78
2022/08/01 17:04:06;;;;;;;5.90;2.67;;;;;;;27.39;40.55;100616.59;10185168;29;20051;-79
2022/08/01 17:09:10;;;;;;;6.28;2.30;;;;;;;29.66;37.15;100602.78;10183258;29;20482;-77
2022/08/01 17:14:14;;;;;;;7.80;2.25;;;;;;;29.10;36.71;100605.16;10190336;29;20047;-78
2022/08/01 17:19:17;;;;;;;3.50;2.17;;;;;;;28.61;36.20;100610.06;10185774;29;20036;-78
2022/08/01 17:24:21;;;;;;;7.88;2.20;;;;;;;25.90;41.61;100615.53;10187175;29;20052;-77
2022/08/01 17:29:26;;;;;;;4.68;1.85;;;;;;;29.30;37.78;100605.59;10187843;29;20112;-78
2022/08/01 17:34:29;;;;;;;7.82;1.85;;;;;;;31.76;33.56;100599.53;10189240;29;20052;-79
2022/08/01 17:39:33;;;;;;;4.40;1.92;;;;;;;34.03;30.71;100592.41;10176258;29;20048;-78
2022/08/01 17:44:41;;;;;;;6.00;1.80;;;;;;;34.06;29.54;100604.97;10182384;29;20092;-78
2022/08/01 17:49:51;;;;;;;4.95;1.85;;;;;;;31.47;32.41;100601.63;10181879;29;20417;-77
2022/08/01 17:54:58;;;;;;;2.10;1.23;;;;;;;31.02;32.97;100613.78;10180612;29;20044;-78
2022/08/01 18:00:03;;;;;;;6.65;1.50;;;;;;;29.91;34.65;100608.81;10177169;29;20567;-77
2022/08/01 18:05:06;;;;;;;3.85;1.30;;;;;;;29.60;35.34;100612.91;10178807;29;20636;-78
2022/08/01 18:10:14;;;;;;;3.17;1.73;;;;;;;27.22;37.75;100627.41;10176311;29;20139;-77
2022/08/01 18:15:18;;;;;;;4.65;1.90;;;;;;;24.80;42.36;100626.38;10177571;29;20040;-77
2022/08/01 18:20:28;;;;;;;5.40;1.75;;;;;;;23.58;45.02;100634.53;10173731;29;20139;-79
2022/08/01 18:25:33;;;;;;;6.55;1.73;;;;;;;23.06;46.47;100641.38;10183694;29;20095;-79
2022/08/01 18:30:36;;;;;;;4.90;1.70;;;;;;;22.65;47.60;100636.63;10182721;29;20058;-78
2022/08/01 18:35:39;;;;;;;6.18;1.65;;;;;;;22.30;48.73;100632.94;10191207;29;20052;-78
2022/08/01 18:40:57;;;;;;;5.63;2.13;;;;;;;22.02;49.34;100633.72;10179867;29;20635;-78
2022/08/01 18:46:00;;;;;;;9.57;2.03;;;;;;;21.72;50.63;100638.38;10172980;29;20397;-78
2022/08/01 18:51:03;;;;;;;5.43;1.70;;;;;;;21.50;50.99;100644.81;10178773;29;20054;-78
2022/08/01 18:56:11;;;;;;;6.57;1.95;;;;;;;21.37;51.16;100645.50;10173497;29;20494;-79
2022/08/01 19:01:14;;;;;;;7.45;2.10;;;;;;;21.31;51.40;100657.16;10176223;29;20052;-77
2022/08/01 19:06:17;;;;;;;8.50;2.10;;;;;;;21.17;51.59;100651.53;10162631;29;20056;-77
2022/08/01 19:11:22;;;;;;;8.70;2.25;;;;;;;21.07;51.27;100667.31;10175740;29;20107;-77
2022/08/01 19:16:26;;;;;;;5.93;1.83;;;;;;;20.91;51.58;100667.44;10177522;29;20044;-78
2022/08/01 19:21:29;;;;;;;7.00;1.88;;;;;;;20.94;51.97;100672.53;10176780;29;20052;-78
2022/08/01 19:26:34;;;;;;;5.75;1.73;;;;;;;20.88;51.64;100679.59;10180095;29;20675;-78
2022/08/01 19:31:40;;;;;;;5.82;2.10;;;;;;;20.88;52.31;100687.78;10176326;29;20044;-78
2022/08/01 19:36:52;;;;;;;7.05;2.20;;;;;;;20.90;52.27;100693.03;10164074;29;20044;-78
2022/08/01 19:41:58;;;;;;;6.80;2.35;;;;;;;20.88;51.72;100685.06;10164371;29;20056;-78
2022/08/01 19:47:01;;;;;;;7.65;2.20;;;;;;;20.85;52.04;100679.97;10171563;29;20059;-78
2022/08/01 19:52:05;;;;;;;7.00;1.95;;;;;;;20.87;52.54;100683.38;10178949;29;20067;-77
2022/08/01 19:57:13;;;;;;;7.15;2.13;;;;;;;20.78;53.04;100696.22;10186179;29;20103;-77
2022/08/01 20:02:18;;;;;;;5.20;1.67;;;;;;;20.64;52.54;100704.38;10188264;29;20056;-78
2022/08/01 20:07:20;;;;;;;3.58;1.80;;;;;;;20.58;53.49;100711.41;10190261;29;20393;-77
2022/08/01 20:12:25;;;;;;;8.65;2.25;;;;;;;20.59;53.41;100709.53;10184681;29;20044;-78
2022/08/01 20:17:28;;;;;;;6.95;2.42;;;;;;;20.55;53.47;100704.44;10171902;29;20051;-78
2022/08/01 20:22:34;;;;;;;4.07;1.95;;;;;;;20.55;53.43;100696.25;10201048;29;20461;-78
2022/08/01 20:27:42;;;;;;;5.28;2.60;;;;;;;20.46;53.69;100699.22;10191190;29;20489;-78
2022/08/01 20:32:46;;;;;;;5.22;2.33;;;;;;;20.28;53.34;100699.47;10176706;29;20067;-78
2022/08/01 20:37:52;;;;;;;7.25;2.60;;;;;;;20.12;53.92;100698.53;10178371;29;20044;-78
2022/08/01 20:43:11;;;;;;;7.60;2.20;;;;;;;19.94;54.30;100699.84;10179882;29;20100;-78
2022/08/01 20:48:15;;;;;;;7.22;2.08;;;;;;;19.77;54.99;100705.38;10181418;29;20050;-78
2022/08/01 20:53:18;;;;;;;3.38;2.20;;;;;;;19.54;55.48;100704.41;10170520;29;20052;-79
2022/08/01 20:58:31;;;;;;;6.07;2.08;;;;;;;19.44;55.85;100705.47;10170219;29;20071;-79
2022/08/01 21:03:42;;;;;;;4.32;2.10;;;;;;;19.32;56.08;100722.34;10197097;29;20044;-79
2022/08/01 21:08:48;;;;;;;5.00;2.20;;;;;;;19.16;56.64;100725.94;10176271;29;20086;-79
2022/08/01 21:13:54;;;;;;;9.98;3.03;;;;;;;18.94;57.05;100731.06;10172480;29;20046;-79
2022/08/01 21:19:01;;;;;;;7.72;2.65;;;;;;;18.74;57.74;100729.69;10171405;29;20044;-78
2022/08/01 21:24:29;;;;;;;11.13;4.03;;;;;;;18.57;58.25;100737.84;10179444;29;20044;-78
2022/08/01 21:29:35;;;;;;;7.78;2.42;;;;;;;18.45;58.92;100741.88;10172844;29;20174;-78
2022/08/01 21:34:39;;;;;;;5.90;2.90;;;;;;;18.38;59.16;100743.59;10198350;29;20062;-78
2022/08/01 21:39:45;;;;;;;6.55;2.30;;;;;;;18.31;59.37;100737.09;10212574;29;20044;-78
2022/08/01 21:44:49;;;;;;;10.50;2.53;;;;;;;18.24;59.65;100736.94;10184715;29;20112;-78
2022/08/01 21:49:52;;;;;;;6.22;2.60;;;;;;;18.13;59.83;100737.25;10178748;29;20048;-78
2022/08/01 21:55:04;;;;;;;11.60;2.95;;;;;;;18.08;59.82;100726.84;10177086;29;20056;-77
2022/08/01 22:00:20;;;;;;;8.35;2.65;;;;;;;17.94;60.27;100727.47;10177504;29;20040;-77
2022/08/01 22:05:29;;;;;;;9.13;3.55;;;;;;;17.88;60.23;100720.81;10187212;29;20052;-78
2022/08/01 22:10:57;;;;;;;7.97;2.85;;;;;;;17.70;61.28;100725.50;10169944;29;20041;-78
2022/08/01 22:16:03;;;;;;;7.97;2.67;;;;;;;17.61;61.17;100729.19;10189536;29;20569;-78
2022/08/01 22:21:07;;;;;;;7.00;2.65;;;;;;;17.60;61.25;100732.91;10196131;29;20182;-78
2022/08/01 22:26:12;;;;;;;6.60;2.70;;;;;;;17.51;61.24;100732.00;10184557;29;20514;-79
2022/08/01 22:31:18;;;;;;;7.43;2.72;;;;;;;17.42;61.64;100728.41;10172089;29;20096;-77
2022/08/01 22:36:21;;;;;;;6.43;2.92;;;;;;;17.37;61.80;100738.03;10179052;29;20462;-77
2022/08/01 22:41:29;;;;;;;13.35;2.72;;;;;;;17.33;61.61;100742.06;10195757;29;20443;-77
2022/08/01 22:47:00;;;;;;;6.45;2.60;;;;;;;17.24;62.22;100746.59;10191688;29;20052;-77
2022/08/01 22:52:11;;;;;;;5.53;2.47;;;;;;;17.12;62.27;100756.00;10188904;29;20040;-77
2022/08/01 22:57:19;;;;;;;6.43;2.80;;;;;;;17.00;62.65;100753.53;10186862;29;20496;-77
2022/08/01 23:02:27;;;;;;;13.02;3.22;;;;;;;16.87;62.54;100761.22;10177859;29;20083;-77
2022/08/01 23:07:33;;;;;;;7.18;3.60;;;;;;;16.76;62.72;100756.88;10177890;29;20080;-77
2022/08/01 23:12:36;;;;;;;4.63;3.03;;;;;;;16.75;62.95;100754.31;10175624;29;20163;-77
2022/08/01 23:17:42;;;;;;;8.18;3.40;;;;;;;16.70;62.86;100748.50;10177161;29;20063;-79
2022/08/01 23:22:45;;;;;;;8.10;3.50;;;;;;;16.63;62.91;100748.28;10176551;29;20056;-78
2022/08/01 23:27:49;;;;;;;7.82;2.97;;;;;;;16.56;63.23;100750.78;10188874;29;20070;-76
2022/08/01 23:33:08;;;;;;;8.50;3.67;;;;;;;16.52;62.81;100753.94;10188272;29;20072;-76
2022/08/01 23:38:17;;;;;;;6.57;3.03;;;;;;;16.40;63.14;100753.31;10181404;29;20170;-78
2022/08/01 23:43:20;;;;;;;10.65;2.80;;;;;;;16.32;63.34;100759.50;10198919;29;20135;-79
2022/08/01 23:48:24;;;;;;;9.75;3.20;;;;;;;16.22;62.64;100753.25;10183674;29;20048;-78